Time;durP1;ratioP1;P1;durP2;ratioP2;P2;SDS_P1;SDS_P2;PMS_P1;PMS_P2;Temp;Humidity;BMP_temperature;BMP_pressure;BME280_temperature;BME280_humidity;BME280_pressure;Samples;Min_cycle;Max_cycle;Signal;HPM_P1;HPM_P2
2021/07/27 00:02:10;;;;;;;3.2;2.9;;;;;;;18.09;89.56836;938.2119;;;;
2021/07/27 00:04:36;;;;;;;4.2;3;;;;;;;18.11;89.44434;938.2697;;;;
2021/07/27 00:07:01;;;;;;;3.2;2.9;;;;;;;18.1;89.13965;938.2521;;;;
2021/07/27 00:09:26;;;;;;;3.7;2.7;;;;;;;18.02;89.27441;938.2622;;;;
2021/07/27 00:11:51;;;;;;;4.4;2.8;;;;;;;17.89;89.77148;938.2614;;;;
2021/07/27 00:16:42;;;;;;;3.4;2.7;;;;;;;17.7;90.55469;938.2776;;;;
2021/07/27 00:19:08;;;;;;;3.1;2.8;;;;;;;17.56;91.23438;938.2424;;;;
2021/07/27 00:21:33;;;;;;;4.4;2.6;;;;;;;17.45;92.30273;938.3128;;;;
2021/07/27 00:23:59;;;;;;;3.8;2.7;;;;;;;17.53;91.90234;938.3137;;;;
2021/07/27 00:26:25;;;;;;;4.5;3;;;;;;;17.56;91.6084;938.3929;;;;
2021/07/27 00:28:49;;;;;;;4.1;2.8;;;;;;;17.59;91.48438;938.3932;;;;
2021/07/27 00:31:14;;;;;;;4.1;3.2;;;;;;;17.64;90.72949;938.3862;;;;
2021/07/27 00:33:40;;;;;;;3.5;3;;;;;;;17.67;90.82813;938.413;;;;
2021/07/27 00:36:18;;;;;;;3.1;2.7;;;;;;;17.57;91.21387;938.3984;;;;
2021/07/27 00:38:43;;;;;;;4.1;2.7;;;;;;;17.56;91.37598;938.4155;;;;
2021/07/27 00:41:08;;;;;;;3.9;2.8;;;;;;;17.62;91.01367;938.4363;;;;
2021/07/27 00:43:34;;;;;;;3.7;3.1;;;;;;;17.63;90.66016;938.4934;;;;
2021/07/27 00:46:00;;;;;;;3.1;2.6;;;;;;;17.58;90.40527;938.4811;;;;
2021/07/27 00:48:24;;;;;;;3.8;2.7;;;;;;;17.58;90.4375;938.4425;;;;
2021/07/27 00:51:13;;;;;;;2.8;2.5;;;;;;;17.55;90.28125;938.4294;;;;
2021/07/27 00:53:39;;;;;;;2.8;2.6;;;;;;;17.43;90.7334;938.4772;;;;
2021/07/27 00:56:04;;;;;;;3.5;2.5;;;;;;;17.33;91.00195;938.4947;;;;
2021/07/27 00:58:31;;;;;;;2.8;2.6;;;;;;;17.26;91.26563;938.4871;;;;
2021/07/27 01:00:56;;;;;;;2.9;2.6;;;;;;;17.01;92.74316;938.4219;;;;
2021/07/27 01:03:23;;;;;;;2.8;2.5;;;;;;;17.15;92.61133;938.3702;;;;
2021/07/27 01:05:48;;;;;;;4.9;2.8;;;;;;;17.27;91.75488;938.3862;;;;
2021/07/27 01:08:15;;;;;;;4.4;3.1;;;;;;;17.29;91.39746;938.4543;;;;
2021/07/27 01:10:40;;;;;;;4.1;3.1;;;;;;;17.24;91.8418;938.3923;;;;
2021/07/27 01:13:06;;;;;;;4.8;3.1;;;;;;;17.14;92.43555;938.4434;;;;
2021/07/27 01:15:36;;;;;;;4.2;3.2;;;;;;;17.21;92.35547;938.4377;;;;
2021/07/27 01:18:14;;;;;;;4.1;3;;;;;;;17.21;92.29785;938.4368;;;;
2021/07/27 01:20:46;;;;;;;3.2;2.9;;;;;;;17.18;92.4082;938.4034;;;;
2021/07/27 01:37:51;;;;;;;4.3;3.1;;;;;;;17.22;92.33691;938.5101;;;;
2021/07/27 01:40:13;;;;;;;3.3;2.7;;;;;;;17.17;92.4873;938.4551;;;;
2021/07/27 01:42:40;;;;;;;3.3;2.6;;;;;;;17.28;91.83789;938.3594;;;;
2021/07/27 01:45:09;;;;;;;3.4;2.8;;;;;;;17.34;91.35254;938.3914;;;;
2021/07/27 01:47:36;;;;;;;4;2.8;;;;;;;17.41;91.63379;938.3364;;;;
2021/07/27 01:50:01;;;;;;;4.5;3;;;;;;;17.49;91.05762;938.2887;;;;
2021/07/27 01:53:26;;;;;;;8.7;3.1;;;;;;;17.5;91.03809;938.278;;;;
2021/07/27 01:55:46;;;;;;;4.3;2.8;;;;;;;17.52;90.27441;938.2818;;;;
2021/07/27 01:58:12;;;;;;;2.5;2.3;;;;;;;17.46;90.45996;938.2827;;;;
2021/07/27 02:00:37;;;;;;;2.9;2.6;;;;;;;17.47;90.29004;938.2277;;;;
2021/07/27 02:03:02;;;;;;;3;2.7;;;;;;;17.47;90.35938;938.2294;;;;
2021/07/27 02:05:33;;;;;;;3.1;2.8;;;;;;;17.42;90.37109;938.2045;;;;
2021/07/27 02:08:02;;;;;;;3.5;2.6;;;;;;;17.3;90.70703;938.2029;;;;
2021/07/27 02:10:33;;;;;;;4.9;2.9;;;;;;;17.2;91.33594;938.2148;;;;
2021/07/27 02:13:02;;;;;;;2.8;2.5;;;;;;;17.22;91.21191;938.0811;;;;
2021/07/27 02:16:04;;;;;;;3;2.7;;;;;;;17.29;90.69141;938.1412;;;;
2021/07/27 02:18:34;;;;;;;3.2;2.9;;;;;;;17.27;90.78223;938.1414;;;;
2021/07/27 02:20:59;;;;;;;4.1;2.8;;;;;;;17.26;90.6748;938.1667;;;;
2021/07/27 02:23:27;;;;;;;4.5;2.8;;;;;;;17.11;91.53516;938.1761;;;;
2021/07/27 02:25:52;;;;;;;4.3;3.1;;;;;;;17.06;92.01074;938.1905;;;;
2021/07/27 02:28:20;;;;;;;3.3;3;;;;;;;17.11;91.74414;938.16;;;;
2021/07/27 02:30:49;;;;;;;3.5;2.9;;;;;;;17.16;91.36133;938.098;;;;
2021/07/27 02:33:11;;;;;;;3.3;2.9;;;;;;;17.07;91.6416;938.1719;;;;
2021/07/27 02:35:36;;;;;;;4.7;3.2;;;;;;;17.07;91.8623;938.2419;;;;
2021/07/27 02:38:01;;;;;;;3.6;3.1;;;;;;;17;91.97656;938.2249;;;;
2021/07/27 02:40:29;;;;;;;4.8;3.3;;;;;;;16.89;92.39355;938.2226;;;;
2021/07/27 02:42:55;;;;;;;5;3.2;;;;;;;16.95;92.26758;938.1781;;;;
2021/07/27 02:45:21;;;;;;;5.2;3.1;;;;;;;16.91;91.89941;938.1064;;;;
2021/07/27 02:47:46;;;;;;;5.3;2.9;;;;;;;16.88;91.92871;938.106;;;;
2021/07/27 02:50:15;;;;;;;3.5;2.9;;;;;;;16.84;92.07129;938.0672;;;;
2021/07/27 02:52:40;;;;;;;3.8;3.3;;;;;;;16.76;92.22852;938.0891;;;;
2021/07/27 02:55:05;;;;;;;3.1;2.8;;;;;;;16.58;93.37109;937.9608;;;;
2021/07/27 02:57:50;;;;;;;5;3;;;;;;;16.6;93.58105;937.9091;;;;
2021/07/27 03:00:14;;;;;;;3.4;2.9;;;;;;;16.57;93.29785;937.9866;;;;
2021/07/27 03:02:39;;;;;;;3;2.7;;;;;;;16.6;93.27051;938.0167;;;;
2021/07/27 03:05:04;;;;;;;3.6;3;;;;;;;16.49;93.73145;937.9799;;;;
2021/07/27 03:07:47;;;;;;;4.1;2.9;;;;;;;16.48;93.74121;937.9517;;;;
2021/07/27 03:12:22;;;;;;;3.8;3.3;;;;;;;16.51;93.36719;937.9658;;;;
2021/07/27 03:15:08;;;;;;;4.3;3.1;;;;;;;16.57;93.11426;937.9922;;;;
2021/07/27 03:17:33;;;;;;;4.5;3.2;;;;;;;16.62;92.62598;938.0506;;;;
2021/07/27 03:20:02;;;;;;;7.1;3.4;;;;;;;16.63;92.36133;938.0287;;;;
2021/07/27 03:22:27;;;;;;;5;3.5;;;;;;;16.67;92.07031;937.9568;;;;
2021/07/27 03:24:56;;;;;;;4.9;3.7;;;;;;;16.64;91.94824;938.01;;;;
2021/07/27 03:27:21;;;;;;;4.4;3.2;;;;;;;16.57;92.36035;937.9979;;;;
2021/07/27 03:29:51;;;;;;;4.4;3.2;;;;;;;16.53;92.73633;938.025;;;;
2021/07/27 03:32:21;;;;;;;4.2;3.1;;;;;;;16.46;92.88281;937.9899;;;;
2021/07/27 03:34:46;;;;;;;5.1;3.1;;;;;;;16.49;92.79395;938.0087;;;;
2021/07/27 03:37:15;;;;;;;5;3.3;;;;;;;16.44;92.66895;938.0069;;;;
2021/07/27 03:39:45;;;;;;;8.2;4.9;;;;;;;16.39;92.47461;937.9623;;;;
2021/07/27 03:42:38;;;;;;;5.5;4.4;;;;;;;16.38;92.58789;937.9921;;;;
2021/07/27 03:45:10;;;;;;;5;4;;;;;;;16.18;93.55273;937.9816;;;;
2021/07/27 03:47:39;;;;;;;4.8;3.8;;;;;;;15.87;95.2998;938.038;;;;
2021/07/27 03:50:04;;;;;;;4.4;3.3;;;;;;;15.87;95.55371;938.0661;;;;
2021/07/27 03:52:29;;;;;;;4.8;3.2;;;;;;;15.91;95.89746;938.0464;;;;
2021/07/27 03:54:56;;;;;;;4.2;3;;;;;;;15.93;95.68164;938.0069;;;;
2021/07/27 03:57:21;;;;;;;3.9;3.2;;;;;;;16.06;94.9248;938.057;;;;
2021/07/27 03:59:49;;;;;;;3.7;3.1;;;;;;;16.18;93.93262;938.0869;;;;
2021/07/27 04:03:36;;;;;;;6.5;3.4;;;;;;;16.21;93.41895;938.0406;;;;
2021/07/27 04:06:03;;;;;;;4;3.6;;;;;;;16.27;93.31543;937.9293;;;;
2021/07/27 04:08:28;;;;;;;4.8;3;;;;;;;16.32;92.50293;937.9448;;;;
2021/07/27 04:10:58;;;;;;;6.4;3.4;;;;;;;16.18;93.09961;937.9695;;;;
2021/07/27 04:13:23;;;;;;;6.7;3.5;;;;;;;16.22;93.22461;937.8954;;;;
2021/07/27 04:15:55;;;;;;;5.5;3.7;;;;;;;16.32;92.74609;937.8644;;;;
2021/07/27 04:18:20;;;;;;;6.2;3.5;;;;;;;16.33;92.33203;937.931;;;;
2021/07/27 04:20:50;;;;;;;5.5;3.7;;;;;;;16.36;91.85547;937.9313;;;;
2021/07/27 04:23:15;;;;;;;5.4;3.9;;;;;;;16.28;92.20801;937.918;;;;
2021/07/27 04:25:45;;;;;;;4.6;3.2;;;;;;;16.35;91.7373;937.9523;;;;
2021/07/27 04:28:16;;;;;;;4.4;3.3;;;;;;;16.4;91.49219;937.9219;;;;
2021/07/27 04:30:47;;;;;;;5;3.5;;;;;;;16.36;91.49512;937.957;;;;
2021/07/27 04:33:17;;;;;;;3.8;3.3;;;;;;;16.05;92.87598;937.9712;;;;
2021/07/27 04:35:48;;;;;;;4.8;3.6;;;;;;;16.21;92.58691;937.8808;;;;
2021/07/27 04:38:18;;;;;;;4.5;3.3;;;;;;;16.24;91.97949;937.9378;;;;
2021/07/27 04:40:43;;;;;;;4.7;3.7;;;;;;;16.34;91.93066;937.8907;;;;
2021/07/27 04:43:09;;;;;;;5.4;3.5;;;;;;;16.33;91.4082;937.8063;;;;
2021/07/27 04:45:45;;;;;;;4.4;3.7;;;;;;;16.34;91.46777;937.8055;;;;
2021/07/27 04:48:14;;;;;;;5.6;3.8;;;;;;;16.3;92.03711;937.8519;;;;
2021/07/27 04:50:39;;;;;;;4.1;3.5;;;;;;;16.36;91.38086;937.8686;;;;
2021/07/27 04:53:09;;;;;;;6.1;3.4;;;;;;;16.37;91.47559;937.7576;;;;
2021/07/27 04:55:32;;;;;;;5.1;3.5;;;;;;;16.4;91.17969;937.7894;;;;
2021/07/27 04:57:58;;;;;;;7.2;3.7;;;;;;;16.43;91.2207;937.7949;;;;
2021/07/27 05:00:23;;;;;;;6.2;3.5;;;;;;;16.36;91.29785;937.8077;;;;
2021/07/27 05:02:49;;;;;;;7.1;3.6;;;;;;;16.23;92.11426;937.8287;;;;
2021/07/27 05:05:14;;;;;;;3.8;3.4;;;;;;;16.22;92.36719;937.7605;;;;
2021/07/27 05:07:42;;;;;;;5.1;3.8;;;;;;;16.4;91.53711;937.8649;;;;
2021/07/27 05:10:07;;;;;;;5.2;3.6;;;;;;;16.39;91.62988;937.832;;;;
2021/07/27 05:12:35;;;;;;;4.3;3.2;;;;;;;16.72;91.1416;937.8066;;;;
2021/07/27 05:15:00;;;;;;;8.5;3.7;;;;;;;16.92;88.80762;937.7838;;;;
2021/07/27 05:17:26;;;;;;;6.5;4.1;;;;;;;17.07;88.29395;937.7888;;;;
2021/07/27 05:19:55;;;;;;;5.9;3.6;;;;;;;17.12;87.85059;937.7946;;;;
2021/07/27 05:22:23;;;;;;;5.4;3.6;;;;;;;17.17;87.44434;937.7767;;;;
2021/07/27 05:24:51;;;;;;;4;3.3;;;;;;;17.28;86.89746;937.8653;;;;
2021/07/27 05:27:16;;;;;;;5.2;3.7;;;;;;;17.19;87.92383;937.9036;;;;
2021/07/27 05:29:41;;;;;;;3.6;3.3;;;;;;;17.31;87.63379;937.8631;;;;
2021/07/27 05:32:06;;;;;;;5.1;3.5;;;;;;;17.47;85.98633;937.8831;;;;
2021/07/27 05:37:36;;;;;;;4.9;3.2;;;;;;;18.16;82.71582;937.9172;;;;
2021/07/27 05:40:03;;;;;;;7;3.1;;;;;;;18.79;79.1582;937.975;;;;
2021/07/27 05:46:08;;;;;;;3.9;3;;;;;;;19.76;75.35449;937.8383;;;;
2021/07/27 05:48:34;;;;;;;7.3;3.1;;;;;;;20.71;72.18555;937.8867;;;;
2021/07/27 05:51:03;;;;;;;6.8;3;;;;;;;21.06;70.01953;937.93;;;;
2021/07/27 05:54:25;;;;;;;6.9;3.8;;;;;;;21.14;69.59961;937.921;;;;
2021/07/27 05:56:44;;;;;;;5.9;3.3;;;;;;;22.2;65.07715;937.887;;;;
2021/07/27 05:59:09;;;;;;;5.6;3.8;;;;;;;23.07;61.70313;937.9105;;;;
2021/07/27 06:01:37;;;;;;;5;3.4;;;;;;;23.65;59.71387;937.9727;;;;
2021/07/27 06:04:28;;;;;;;3.8;3.4;;;;;;;24.12;57.76172;937.9426;;;;
2021/07/27 06:06:56;;;;;;;4.2;3.6;;;;;;;24.26;57.40332;937.8528;;;;
2021/07/27 06:09:21;;;;;;;5.1;3.3;;;;;;;25.1;55.19824;937.9114;;;;
2021/07/27 06:11:50;;;;;;;5.4;3.3;;;;;;;25.35;54.06055;937.9244;;;;
2021/07/27 06:14:16;;;;;;;4.3;3.1;;;;;;;24.71;55.63379;937.9257;;;;
2021/07/27 06:16:45;;;;;;;3.7;3.1;;;;;;;25.55;53.97949;937.9595;;;;
2021/07/27 06:19:10;;;;;;;3.1;2.5;;;;;;;26.19;51.45313;938.0144;;;;
2021/07/27 06:21:36;;;;;;;3.5;2.5;;;;;;;26.97;49.10059;938.0006;;;;
2021/07/27 06:24:07;;;;;;;2.2;2;;;;;;;26.23;50.21484;938.0167;;;;
2021/07/27 06:26:26;;;;;;;2.5;2.1;;;;;;;27.1;47.40723;938.0286;;;;
2021/07/27 06:28:51;;;;;;;4.8;2.7;;;;;;;27.78;46.67188;937.975;;;;
2021/07/27 06:31:24;;;;;;;3.2;2.5;;;;;;;29.11;43.28418;937.9497;;;;
2021/07/27 06:33:52;;;;;;;4.8;2.4;;;;;;;28.55;43.81543;937.8312;;;;
2021/07/27 06:36:23;;;;;;;2.4;2.2;;;;;;;30.02;41.12988;937.9067;;;;
2021/07/27 06:38:53;;;;;;;3;2.2;;;;;;;30.25;39.04883;937.9609;;;;
2021/07/27 06:41:18;;;;;;;3.8;2.6;;;;;;;31.03;39.16504;937.9285;;;;
2021/07/27 06:43:46;;;;;;;4.7;2.5;;;;;;;31.37;38.2002;937.9182;;;;
2021/07/27 06:46:11;;;;;;;2.3;2.1;;;;;;;31.38;38.34473;937.87;;;;
2021/07/27 06:48:38;;;;;;;2.2;2;;;;;;;31.54;39.14941;937.869;;;;
2021/07/27 06:51:04;;;;;;;2.2;2;;;;;;;32.01;36.13281;937.8989;;;;
2021/07/27 06:53:31;;;;;;;2.9;2.2;;;;;;;32.42;37.67676;937.8472;;;;
2021/07/27 06:55:56;;;;;;;2.8;2.1;;;;;;;31.97;38.29883;937.8772;;;;
2021/07/27 06:58:24;;;;;;;2.8;2.1;;;;;;;31.54;39.125;937.9738;;;;
2021/07/27 07:00:49;;;;;;;2.2;1.8;;;;;;;31.45;39.71582;937.905;;;;
2021/07/27 07:03:17;;;;;;;2.5;2.3;;;;;;;32.94;35.37891;937.8422;;;;
2021/07/27 07:05:47;;;;;;;2.4;2;;;;;;;32.42;35.42188;937.8663;;;;
2021/07/27 07:08:12;;;;;;;2.4;2.1;;;;;;;33.22;35.89355;937.8203;;;;
2021/07/27 07:10:38;;;;;;;2.3;2.1;;;;;;;30.05;42.74414;937.8284;;;;
2021/07/27 07:13:06;;;;;;;2.2;2;;;;;;;29.06;42.78027;937.7764;;;;
2021/07/27 07:15:31;;;;;;;2.7;2.3;;;;;;;29.48;43.47656;937.704;;;;
2021/07/27 07:18:00;;;;;;;3.1;2.2;;;;;;;31.76;38.80859;937.6219;;;;
2021/07/27 07:31:50;;;;;;;2.1;2;;;;;;;31.02;39.91699;937.586;;;;
2021/07/27 07:34:20;;;;;;;2.3;1.9;;;;;;;31.22;39.48047;937.5246;;;;
2021/07/27 07:36:51;;;;;;;3.5;2;;;;;;;33.29;34.66113;937.4941;;;;
2021/07/27 07:39:21;;;;;;;2.3;2;;;;;;;34.35;31.30762;937.5389;;;;
2021/07/27 07:41:53;;;;;;;2.3;2.1;;;;;;;34.94;31.93945;937.5217;;;;
2021/07/27 07:44:18;;;;;;;2.1;1.9;;;;;;;33.8;34.82031;937.4952;;;;
2021/07/27 07:46:45;;;;;;;2;1.9;;;;;;;33.74;33.86523;937.5201;;;;
2021/07/27 07:49:11;;;;;;;1.9;1.8;;;;;;;33.58;34.41895;937.4892;;;;
2021/07/27 07:51:41;;;;;;;2.4;2;;;;;;;32.98;36.88281;937.4832;;;;
2021/07/27 07:54:19;;;;;;;2.1;1.9;;;;;;;33.17;34.58008;937.459;;;;
2021/07/27 07:56:45;;;;;;;3.1;2.1;;;;;;;33.11;35.95605;937.4308;;;;
2021/07/27 07:59:15;;;;;;;2.7;2.1;;;;;;;32.73;35.34961;937.4091;;;;
2021/07/27 08:01:44;;;;;;;2.6;2;;;;;;;32.72;38.50684;937.4045;;;;
2021/07/27 08:04:05;;;;;;;2.9;2.6;;;;;;;32.16;37.69141;937.4895;;;;
2021/07/27 08:06:34;;;;;;;2;1.8;;;;;;;31.49;41.05957;937.4651;;;;
2021/07/27 08:09:00;;;;;;;3.7;2.3;;;;;;;31.49;39.39648;937.4611;;;;
2021/07/27 08:11:28;;;;;;;2.1;1.9;;;;;;;30.9;40.79199;937.4631;;;;
2021/07/27 08:13:58;;;;;;;2.1;1.9;;;;;;;30.98;40.09375;937.486;;;;
2021/07/27 08:16:23;;;;;;;2.1;1.9;;;;;;;31.97;37.45996;937.4099;;;;
2021/07/27 08:18:54;;;;;;;2.3;1.7;;;;;;;30.26;40.75684;937.4097;;;;
2021/07/27 08:21:19;;;;;;;5.8;2;;;;;;;28.34;46.25488;937.3809;;;;
2021/07/27 08:23:48;;;;;;;2.5;2.1;;;;;;;28.95;43.51953;937.3411;;;;
2021/07/27 08:26:17;;;;;;;2.4;2.1;;;;;;;28.54;45.35938;937.2992;;;;
2021/07/27 08:28:48;;;;;;;2.8;2;;;;;;;27.95;47.0332;937.3384;;;;
2021/07/27 08:31:12;;;;;;;2.3;1.9;;;;;;;29.2;43.35352;937.3064;;;;
2021/07/27 08:33:40;;;;;;;2.5;2.1;;;;;;;30.44;40.79688;937.3237;;;;
2021/07/27 08:36:05;;;;;;;2.1;1.8;;;;;;;31.37;38.24805;937.3555;;;;
2021/07/27 08:38:34;;;;;;;2.4;1.9;;;;;;;31.76;38.52051;937.3363;;;;
2021/07/27 08:40:58;;;;;;;2.2;2;;;;;;;33.12;35.84961;937.3735;;;;
2021/07/27 08:43:25;;;;;;;2.5;1.8;;;;;;;32.04;40.82129;937.3709;;;;
2021/07/27 08:45:50;;;;;;;2.5;2.1;;;;;;;32.57;35.74609;937.3733;;;;
2021/07/27 08:48:17;;;;;;;2.8;2;;;;;;;32.64;36.44727;937.3878;;;;
2021/07/27 08:50:42;;;;;;;2.6;1.9;;;;;;;31.96;38.18945;937.2684;;;;
2021/07/27 08:53:09;;;;;;;2.1;1.9;;;;;;;31.11;39.1123;937.3652;;;;
2021/07/27 08:55:35;;;;;;;2.1;1.9;;;;;;;29.65;42.12109;937.3666;;;;
2021/07/27 08:58:01;;;;;;;2.1;1.9;;;;;;;27.58;46.63965;937.3516;;;;
2021/07/27 09:00:26;;;;;;;3.5;2.4;;;;;;;26.83;48.12598;937.3723;;;;
2021/07/27 09:02:53;;;;;;;2.3;2.1;;;;;;;26.14;49.43555;937.4442;;;;
2021/07/27 09:05:18;;;;;;;3.4;2.4;;;;;;;25.8;51.41992;937.5196;;;;
2021/07/27 09:07:43;;;;;;;3.2;2.4;;;;;;;25.29;53.59277;937.5231;;;;
2021/07/27 09:10:15;;;;;;;3.4;2.4;;;;;;;24.53;56.97852;937.5394;;;;
2021/07/27 09:12:40;;;;;;;3.8;2.7;;;;;;;24.6;55.26563;937.5226;;;;
2021/07/27 09:15:09;;;;;;;2.9;2.6;;;;;;;24.28;56.0625;937.5494;;;;
2021/07/27 09:18:19;;;;;;;3.4;2.5;;;;;;;24.21;57.45703;937.5374;;;;
2021/07/27 09:20:51;;;;;;;3.1;2.6;;;;;;;23.63;58.4043;937.5677;;;;
2021/07/27 09:23:22;;;;;;;3;2.7;;;;;;;23.7;60.91992;937.6086;;;;
2021/07/27 09:25:55;;;;;;;3.4;2.5;;;;;;;23.85;58.66797;937.5402;;;;
2021/07/27 09:28:20;;;;;;;3.8;2.4;;;;;;;23.98;59.38086;937.5457;;;;
2021/07/27 09:30:49;;;;;;;3.7;2.5;;;;;;;23.79;63.13379;937.5404;;;;
2021/07/27 09:33:20;;;;;;;3.1;2.7;;;;;;;23.53;62.0625;937.5979;;;;
2021/07/27 09:35:45;;;;;;;2.9;2.4;;;;;;;23.72;61.86523;937.5883;;;;
2021/07/27 09:38:14;;;;;;;3;2.7;;;;;;;23.95;61.57813;937.6422;;;;
2021/07/27 09:40:46;;;;;;;4.5;2.8;;;;;;;24.47;60.54199;937.6397;;;;
2021/07/27 09:43:14;;;;;;;2.9;2.6;;;;;;;24.47;57.57129;937.6002;;;;
2021/07/27 09:45:39;;;;;;;2.9;2.5;;;;;;;24.4;57.51563;937.5485;;;;
2021/07/27 09:55:47;;;;;;;4.3;2.6;;;;;;;24.3;58.97656;937.6505;;;;
2021/07/27 09:58:12;;;;;;;3;2.6;;;;;;;24.31;58.75391;937.6038;;;;
2021/07/27 10:00:39;;;;;;;3.2;2.8;;;;;;;23.94;58.73926;937.6767;;;;
2021/07/27 10:03:04;;;;;;;4.4;2.7;;;;;;;24.01;63.24609;937.65;;;;
2021/07/27 10:05:54;;;;;;;3.3;3;;;;;;;23.87;63.37891;937.6515;;;;
2021/07/27 10:08:18;;;;;;;3.3;2.7;;;;;;;24.07;60.28613;937.626;;;;
2021/07/27 10:10:46;;;;;;;4.6;2.9;;;;;;;24.12;59.48242;937.5656;;;;
2021/07/27 10:13:11;;;;;;;3.3;2.7;;;;;;;24;60.64258;937.5474;;;;
2021/07/27 10:15:50;;;;;;;4.1;3;;;;;;;24.14;61.16797;937.5008;;;;
2021/07/27 10:18:20;;;;;;;3.2;2.9;;;;;;;24.17;59.81836;937.5336;;;;
2021/07/27 10:21:00;;;;;;;3.4;2.8;;;;;;;23.97;60.3916;937.6006;;;;
2021/07/27 10:23:29;;;;;;;3.5;2.9;;;;;;;23.9;61.90039;937.6395;;;;
2021/07/27 10:26:12;;;;;;;3.1;2.8;;;;;;;23.93;61.03418;937.5745;;;;
2021/07/27 10:28:30;;;;;;;2.9;2.7;;;;;;;23.81;63.34766;937.6624;;;;
2021/07/27 10:31:09;;;;;;;4.4;3.2;;;;;;;23.87;61.54199;937.6189;;;;
2021/07/27 10:33:39;;;;;;;4;2.8;;;;;;;24.05;61.10938;937.4633;;;;
2021/07/27 10:36:06;;;;;;;5;3.3;;;;;;;24.05;64.34766;937.4714;;;;
2021/07/27 10:38:30;;;;;;;3.1;2.8;;;;;;;23.72;64.53613;937.5028;;;;
2021/07/27 10:41:03;;;;;;;3.3;3;;;;;;;23.88;62.32129;937.5217;;;;
2021/07/27 10:43:28;;;;;;;3.4;2.9;;;;;;;24.19;60.89258;937.5206;;;;
2021/07/27 10:46:00;;;;;;;4.1;3;;;;;;;24.16;60.98242;937.4736;;;;
2021/07/27 10:48:29;;;;;;;3.1;2.8;;;;;;;24.14;63.08691;937.5154;;;;
2021/07/27 10:50:55;;;;;;;3.8;2.9;;;;;;;24.32;61.81836;937.5469;;;;
2021/07/27 10:53:22;;;;;;;4.1;3.2;;;;;;;24.44;60.6084;937.5657;;;;
2021/07/27 10:55:45;;;;;;;3.3;3;;;;;;;24.29;60.95313;937.5388;;;;
2021/07/27 10:58:11;;;;;;;3.6;3.1;;;;;;;24.19;62.05859;937.5223;;;;
2021/07/27 11:00:36;;;;;;;3.3;3;;;;;;;24.26;61.05566;937.5403;;;;
2021/07/27 11:03:05;;;;;;;4.9;3.1;;;;;;;24.03;62.10742;937.5683;;;;
2021/07/27 11:05:30;;;;;;;4.1;3.2;;;;;;;23.79;64.22852;937.5875;;;;
2021/07/27 11:07:58;;;;;;;3.5;3.1;;;;;;;23.56;65.52246;937.5897;;;;
2021/07/27 11:10:23;;;;;;;4.9;3.5;;;;;;;23.58;63.09082;937.5631;;;;
2021/07/27 11:12:52;;;;;;;3.8;3.2;;;;;;;23.52;63.37695;937.6132;;;;
2021/07/27 11:15:19;;;;;;;4.9;3.2;;;;;;;23.36;64.49512;937.5511;;;;
2021/07/27 11:17:46;;;;;;;6.6;3.4;;;;;;;23.25;65.47754;937.5264;;;;
2021/07/27 11:20:12;;;;;;;3.4;3.1;;;;;;;23.11;65.0459;937.5108;;;;
2021/07/27 11:22:42;;;;;;;3.9;3.5;;;;;;;23.08;66.11035;937.4739;;;;
2021/07/27 11:25:12;;;;;;;4.1;3.7;;;;;;;23.14;66.53027;937.3236;;;;
2021/07/27 11:27:39;;;;;;;4.7;3.6;;;;;;;23.06;67.57617;937.3527;;;;
2021/07/27 11:30:12;;;;;;;5.1;3.7;;;;;;;23.06;67.29395;937.3511;;;;
2021/07/27 11:32:35;;;;;;;4.5;3.6;;;;;;;23.12;67.51465;937.3006;;;;
2021/07/27 11:35:05;;;;;;;5.3;3.3;;;;;;;23.13;68.48145;937.3798;;;;
2021/07/27 11:37:35;;;;;;;4.2;3.5;;;;;;;23.04;68.50098;937.334;;;;
2021/07/27 11:40:00;;;;;;;3.9;3.5;;;;;;;23.24;68.27441;937.3878;;;;
2021/07/27 11:42:30;;;;;;;4.4;3.3;;;;;;;23.4;67.68555;937.3344;;;;
2021/07/27 11:45:01;;;;;;;4.1;3.4;;;;;;;23.37;67.38867;937.2974;;;;
2021/07/27 11:47:25;;;;;;;3.7;3.4;;;;;;;23.56;66.85156;937.2742;;;;
2021/07/27 11:49:51;;;;;;;4.2;3.6;;;;;;;23.56;66.49902;937.2703;;;;
2021/07/27 11:52:16;;;;;;;11.3;6.5;;;;;;;23.5;65.47949;937.3011;;;;
2021/07/27 11:54:43;;;;;;;4.8;3.6;;;;;;;23.58;64.87988;937.3206;;;;
2021/07/27 11:57:11;;;;;;;4.1;3.5;;;;;;;23.63;65.83984;937.3741;;;;
2021/07/27 11:59:37;;;;;;;4.1;3.5;;;;;;;23.79;63.92285;937.2899;;;;
2021/07/27 12:02:03;;;;;;;3.7;3.4;;;;;;;23.59;67.99805;937.365;;;;
2021/07/27 12:04:28;;;;;;;4.1;3.7;;;;;;;23.61;64.27148;937.3577;;;;
2021/07/27 12:06:53;;;;;;;4.7;3.3;;;;;;;23.68;65.58789;937.3886;;;;
2021/07/27 12:09:19;;;;;;;4.3;3.6;;;;;;;23.53;63.18945;937.3396;;;;
2021/07/27 12:11:49;;;;;;;6.1;3.8;;;;;;;23.41;65.07813;937.32;;;;
2021/07/27 12:14:14;;;;;;;3.7;3.3;;;;;;;23.44;66.91602;937.2957;;;;
2021/07/27 12:16:44;;;;;;;3.5;3.2;;;;;;;23.37;65.91895;937.2633;;;;
2021/07/27 12:19:10;;;;;;;5;3.5;;;;;;;23.58;64.60742;937.1884;;;;
2021/07/27 12:21:40;;;;;;;4.6;3.6;;;;;;;23.68;65.24707;937.0101;;;;
2021/07/27 12:24:05;;;;;;;4.6;4;;;;;;;23.55;65.09766;936.8257;;;;
2021/07/27 12:26:36;;;;;;;4.1;3.7;;;;;;;23.53;65.83691;936.7639;;;;
2021/07/27 12:29:07;;;;;;;4.3;3.4;;;;;;;23.16;66.87402;936.9124;;;;
2021/07/27 12:31:37;;;;;;;4.2;3.5;;;;;;;23.44;65.25977;936.932;;;;
2021/07/27 12:34:06;;;;;;;3.9;3.4;;;;;;;23.5;63.70313;936.9017;;;;
2021/07/27 12:36:31;;;;;;;3.7;3.4;;;;;;;23.48;64.55957;936.8684;;;;
2021/07/27 12:39:01;;;;;;;3.8;3.4;;;;;;;23.5;64.93848;936.8058;;;;
2021/07/27 12:41:26;;;;;;;4.3;3.4;;;;;;;23.64;64.59375;936.8859;;;;
2021/07/27 12:44:13;;;;;;;4.3;3.6;;;;;;;23.74;64.49121;936.8702;;;;
2021/07/27 12:46:42;;;;;;;5.1;3.9;;;;;;;23.82;65.62012;936.7673;;;;
2021/07/27 12:49:13;;;;;;;7.4;3.6;;;;;;;23.86;64.27148;936.7498;;;;
2021/07/27 12:51:35;;;;;;;4.4;4;;;;;;;23.77;64.26074;936.702;;;;
2021/07/27 12:54:05;;;;;;;6.1;3.8;;;;;;;23.9;65.19629;936.6042;;;;
2021/07/27 12:56:37;;;;;;;4.4;3.5;;;;;;;23.87;65.28613;936.5607;;;;
2021/07/27 12:59:05;;;;;;;5.1;3.9;;;;;;;24.02;64.08398;936.452;;;;
2021/07/27 13:01:36;;;;;;;4.2;3.6;;;;;;;24.17;62.98535;936.5174;;;;
2021/07/27 13:04:01;;;;;;;5.6;3.7;;;;;;;24.23;60.875;936.4651;;;;
2021/07/27 13:06:27;;;;;;;4.2;3.5;;;;;;;24.45;60.4668;936.3458;;;;
2021/07/27 13:08:53;;;;;;;5.3;3.7;;;;;;;24.58;61.09863;936.3558;;;;
2021/07/27 13:11:18;;;;;;;4.6;3.4;;;;;;;24.6;59.5918;936.1887;;;;
2021/07/27 13:13:47;;;;;;;5.4;3.9;;;;;;;24.79;59.6543;936.2978;;;;
2021/07/27 13:16:13;;;;;;;3.9;3.4;;;;;;;25.01;58.3623;936.2865;;;;
2021/07/27 13:18:40;;;;;;;4;3.4;;;;;;;24.89;59.00684;936.2417;;;;
2021/07/27 13:21:09;;;;;;;4.5;3.7;;;;;;;24.99;58.41797;936.2059;;;;
2021/07/27 13:23:41;;;;;;;4.7;3.5;;;;;;;25.17;58.6543;936.1697;;;;
2021/07/27 13:26:14;;;;;;;3.8;3.4;;;;;;;25.38;58.42188;936.0853;;;;
2021/07/27 13:28:37;;;;;;;3.3;3;;;;;;;25.49;57.83301;936.0603;;;;
2021/07/27 13:31:02;;;;;;;4.9;3.5;;;;;;;25.58;55.80078;935.9553;;;;
2021/07/27 13:33:34;;;;;;;4.1;3.4;;;;;;;25.67;56.72168;935.9984;;;;
2021/07/27 13:36:00;;;;;;;4.4;3.8;;;;;;;25.42;59.37109;935.93;;;;
2021/07/27 13:38:27;;;;;;;5.6;3.7;;;;;;;25.36;59.37598;935.9028;;;;
2021/07/27 13:40:53;;;;;;;4.2;3.8;;;;;;;25.53;58.27637;935.8031;;;;
2021/07/27 13:43:25;;;;;;;4.5;3.5;;;;;;;25.69;58.93457;935.9227;;;;
2021/07/27 13:45:58;;;;;;;4.4;3.4;;;;;;;25.5;56.53516;935.9149;;;;
2021/07/27 13:48:26;;;;;;;3.7;3.4;;;;;;;25.47;59.61426;935.8844;;;;
2021/07/27 13:50:51;;;;;;;4.3;3.3;;;;;;;25.43;58.7002;935.8652;;;;
2021/07/27 13:53:19;;;;;;;3.6;3.3;;;;;;;25.44;60.42578;935.8842;;;;
2021/07/27 13:55:46;;;;;;;3.9;3.5;;;;;;;25.31;61.49414;935.8989;;;;
2021/07/27 13:58:16;;;;;;;6.1;3.6;;;;;;;24.99;62.95996;935.8989;;;;
2021/07/27 14:00:47;;;;;;;5.2;3.6;;;;;;;25.01;62.20801;935.8435;;;;
2021/07/27 14:03:15;;;;;;;6.2;3.8;;;;;;;25.1;63.54297;935.8692;;;;
2021/07/27 14:05:40;;;;;;;7.3;4;;;;;;;24.99;63.46777;935.8599;;;;
2021/07/27 14:08:11;;;;;;;6.8;4.1;;;;;;;25;61.36914;935.8308;;;;
2021/07/27 14:10:36;;;;;;;5.3;4.6;;;;;;;24.95;63.43945;935.8949;;;;
2021/07/27 14:13:11;;;;;;;4.3;3.9;;;;;;;25.24;61.90918;935.8733;;;;
2021/07/27 14:15:35;;;;;;;5.1;3.8;;;;;;;25.24;60.5293;935.7947;;;;
2021/07/27 14:18:01;;;;;;;5;4;;;;;;;25.13;61.70508;935.7662;;;;
2021/07/27 14:20:26;;;;;;;5.5;4.2;;;;;;;24.94;61.31445;935.7911;;;;
2021/07/27 14:22:58;;;;;;;6.4;4.3;;;;;;;25.02;61.07813;935.8118;;;;
2021/07/27 14:25:32;;;;;;;4.6;4.1;;;;;;;24.79;63.02832;935.8496;;;;
2021/07/27 14:28:02;;;;;;;4.3;3.9;;;;;;;24.78;62.67188;935.7484;;;;
2021/07/27 14:30:35;;;;;;;4;3.7;;;;;;;24.82;62.83008;935.7636;;;;
2021/07/27 14:33:06;;;;;;;4.2;3.8;;;;;;;24.91;62.88867;935.7743;;;;
2021/07/27 14:35:33;;;;;;;4.2;3.8;;;;;;;24.96;62.58984;935.793;;;;
2021/07/27 14:38:04;;;;;;;5.1;4;;;;;;;24.82;62.53516;935.7467;;;;
2021/07/27 14:40:30;;;;;;;4.5;3.6;;;;;;;24.77;63.69727;935.6795;;;;
2021/07/27 14:42:54;;;;;;;3.9;3.5;;;;;;;24.82;64.11621;935.7536;;;;
2021/07/27 14:45:22;;;;;;;4.3;3.9;;;;;;;24.84;64.04883;935.8002;;;;
2021/07/27 14:47:48;;;;;;;4.5;4.1;;;;;;;24.78;64.2041;935.8292;;;;
2021/07/27 14:50:13;;;;;;;4;3.7;;;;;;;24.91;63.66797;935.8053;;;;
2021/07/27 14:52:44;;;;;;;3.8;3.5;;;;;;;24.27;66.94824;935.7795;;;;
2021/07/27 14:55:10;;;;;;;4.2;3.8;;;;;;;24.65;63.63184;935.7419;;;;
2021/07/27 15:15:14;;;;;;;4.7;4.1;;;;;;;24.2;66.43066;935.5254;;;;
2021/07/27 15:17:42;;;;;;;5.9;4.2;;;;;;;24.2;65.2998;935.5507;;;;
2021/07/27 15:20:16;;;;;;;5.7;3.9;;;;;;;24.29;64.62891;935.4797;;;;
2021/07/27 15:22:42;;;;;;;4.4;4;;;;;;;24.32;65.44531;935.5636;;;;
2021/07/27 15:25:08;;;;;;;5.3;3.6;;;;;;;24.54;65.78516;935.5784;;;;
2021/07/27 15:27:39;;;;;;;4.1;3.8;;;;;;;24.48;64.90332;935.5081;;;;
2021/07/27 15:30:16;;;;;;;4.8;4.1;;;;;;;24.39;63.99609;935.4716;;;;
2021/07/27 15:32:51;;;;;;;4.2;3.7;;;;;;;24.43;64.55566;935.483;;;;
2021/07/27 15:35:24;;;;;;;4;3.6;;;;;;;24.43;64.50781;935.4341;;;;
2021/07/27 15:37:49;;;;;;;4.3;3.9;;;;;;;24.34;65.22559;935.3908;;;;